Decoded Metar for KHBI (ASHEBORO MUNI in NC, USA) (IATA:HBI) | Meteo·Mobile Aviation Weather
aviador You're here:

KHBI Decoded Metar

ASHEBORO MUNI in NC, USA
Report Time2019-09-21 08:35:00
UTC Time2019-09-21 08:47:26
Flight Rules vfr VFR
WindCalm
Visibility9999 m
Phenomena:N/A
Clouds:N/A
Expected CloudBase > 400 ft AGL from Temp-Dew spread
CeilingNone
Temp13°C (ISA -1)
Dew Point12°C (94% RH)
QNH1026 hPa
Density Alt348 ft
Elevation673 ft
Report Wrong Elevation
Raw Report
METAR KHBI 210835Z AUTO 00000KT 10SM CLR 13/12 A3030 RMK AO2 T01270115=

Extra information for KHBI:More info

Metar Taf Metar & Taf Last 4 Metars F.Rules Stats Wind Profile Meteogram Temp Stats Airport Information Weather charts Add Link Nearby VenuesMetar ALERT Operation Metar Decoded Social comments

AIRNAV info for KHBI